createdAt,value
2017-12-06T00:01:18.071Z,100544
2017-12-06T00:03:25.560Z,100539
2017-12-06T00:05:33.429Z,100552
2017-12-06T00:07:39.725Z,100542
2017-12-06T00:09:47.700Z,100550
2017-12-06T00:11:54.984Z,100537
2017-12-06T00:16:07.894Z,100518
2017-12-06T00:18:15.714Z,100538
2017-12-06T00:20:22.108Z,100548
2017-12-06T00:22:28.572Z,100534
2017-12-06T00:24:34.742Z,100534
2017-12-06T00:26:40.322Z,100544
2017-12-06T00:28:46.184Z,100536
2017-12-06T00:30:52.178Z,100540
2017-12-06T00:32:57.922Z,100533
2017-12-06T00:35:04.863Z,100551
2017-12-06T00:37:10.979Z,100528
2017-12-06T00:39:16.505Z,100539
2017-12-06T00:41:22.419Z,100542
2017-12-06T00:43:28.053Z,100551
2017-12-06T00:45:33.628Z,100537
2017-12-06T00:47:39.428Z,100540
2017-12-06T00:49:45.751Z,100526
2017-12-06T00:51:51.535Z,100539
2017-12-06T00:53:57.110Z,100544
2017-12-06T00:56:05.803Z,100557
2017-12-06T00:58:12.351Z,100538
2017-12-06T01:00:21.603Z,100524
2017-12-06T01:02:30.114Z,100543
2017-12-06T01:04:38.867Z,100517
2017-12-06T01:06:46.828Z,100519
2017-12-06T01:08:54.885Z,100526
2017-12-06T01:11:03.904Z,100536
2017-12-06T01:13:10.704Z,100535
2017-12-06T01:15:23.997Z,100533
2017-12-06T01:17:33.081Z,100521
2017-12-06T01:19:41.200Z,100534
2017-12-06T01:21:52.893Z,100560
2017-12-06T01:24:01.467Z,100551
2017-12-06T01:26:07.734Z,100556
2017-12-06T01:28:13.550Z,100530
2017-12-06T01:30:19.971Z,100536
2017-12-06T01:32:27.570Z,100536
2017-12-06T01:34:34.701Z,100539
2017-12-06T01:36:40.748Z,100559
2017-12-06T01:38:47.657Z,100532
2017-12-06T01:40:54.905Z,100542
2017-12-06T01:43:04.164Z,100560
2017-12-06T01:45:10.940Z,100551
2017-12-06T01:47:17.608Z,100521
2017-12-06T01:49:24.195Z,100563
2017-12-06T01:51:31.176Z,100529
2017-12-06T01:53:37.160Z,100535
2017-12-06T01:55:44.402Z,100522
2017-12-06T01:57:50.539Z,100515
2017-12-06T01:59:57.532Z,100519
2017-12-06T02:02:04.256Z,100522
2017-12-06T02:04:16.436Z,100543
2017-12-06T02:06:23.294Z,100525
2017-12-06T02:08:34.128Z,100554
2017-12-06T02:10:41.878Z,100509
2017-12-06T02:12:51.724Z,100530
2017-12-06T02:14:58.328Z,100514
2017-12-06T02:17:07.101Z,100501
2017-12-06T02:19:13.687Z,100520
2017-12-06T02:21:21.572Z,100516
2017-12-06T02:23:30.960Z,100512
2017-12-06T02:25:39.224Z,100515
2017-12-06T02:27:45.560Z,100505
2017-12-06T02:29:53.179Z,100504
2017-12-06T02:32:00.051Z,100502
2017-12-06T02:34:08.132Z,100507
2017-12-06T02:36:15.724Z,100498
2017-12-06T02:38:24.415Z,100498
2017-12-06T02:42:43.500Z,100493
2017-12-06T02:45:30.009Z,100489
2017-12-06T02:47:36.783Z,100508
2017-12-06T02:49:44.147Z,100510
2017-12-06T02:51:52.346Z,100502
2017-12-06T02:53:59.968Z,100498
2017-12-06T02:56:08.710Z,100496
2017-12-06T02:58:15.942Z,100502
2017-12-06T03:00:26.045Z,100536
2017-12-06T03:02:33.080Z,100506
2017-12-06T03:04:40.042Z,100496
2017-12-06T03:06:47.865Z,100488
2017-12-06T03:08:54.685Z,100489
2017-12-06T03:11:01.634Z,100481
2017-12-06T03:13:10.175Z,100501
2017-12-06T03:15:16.678Z,100472
2017-12-06T03:17:24.986Z,100484
2017-12-06T03:19:32.324Z,100482
2017-12-06T03:21:40.876Z,100479
2017-12-06T03:23:47.927Z,100473
2017-12-06T03:25:55.159Z,100489
2017-12-06T03:28:06.086Z,100483
2017-12-06T03:30:13.854Z,100499
2017-12-06T03:32:20.209Z,100489
2017-12-06T03:34:30.788Z,100501
2017-12-06T03:36:38.802Z,100483
2017-12-06T03:38:45.268Z,100492
2017-12-06T03:40:53.700Z,100508
2017-12-06T03:43:02.607Z,100508
2017-12-06T03:45:11.389Z,100496
2017-12-06T03:47:19.172Z,100487
2017-12-06T03:49:28.820Z,100486
2017-12-06T03:51:36.408Z,100474
2017-12-06T03:53:45.093Z,100512
2017-12-06T03:55:53.683Z,100487
2017-12-06T03:58:00.998Z,100508
2017-12-06T04:00:09.212Z,100517
2017-12-06T04:02:19.188Z,100478
2017-12-06T04:04:27.315Z,100490
2017-12-06T04:06:34.286Z,100495
2017-12-06T04:08:42.153Z,100506
2017-12-06T04:11:08.484Z,100479
2017-12-06T04:13:16.073Z,100498
2017-12-06T04:15:26.682Z,100500
2017-12-06T04:17:33.502Z,100482
2017-12-06T04:19:40.549Z,100481
2017-12-06T04:21:48.168Z,100467
2017-12-06T04:23:55.349Z,100490
2017-12-06T04:26:00.902Z,100452
2017-12-06T04:28:06.846Z,100481
2017-12-06T04:30:13.354Z,100458
2017-12-06T04:32:19.865Z,100486
2017-12-06T04:34:25.922Z,100484
2017-12-06T04:36:33.007Z,100478
2017-12-06T04:38:40.553Z,100466
2017-12-06T04:42:11.298Z,100465
2017-12-06T04:44:18.606Z,100457
2017-12-06T04:46:24.897Z,100470
2017-12-06T04:48:32.490Z,100450
2017-12-06T04:50:41.042Z,100444
2017-12-06T04:52:58.128Z,100447
2017-12-06T04:55:05.069Z,100451
2017-12-06T04:57:12.546Z,100454
2017-12-06T04:59:21.506Z,100445
2017-12-06T05:01:28.057Z,100446
2017-12-06T05:03:34.756Z,100441
2017-12-06T05:05:43.666Z,100453
2017-12-06T05:07:50.028Z,100450
2017-12-06T05:09:57.084Z,100439
2017-12-06T05:12:06.406Z,100439
2017-12-06T05:14:13.611Z,100451
2017-12-06T05:16:20.352Z,100437
2017-12-06T05:18:28.582Z,100434
2017-12-06T05:20:37.253Z,100453
2017-12-06T05:22:44.470Z,100435
2017-12-06T05:24:53.855Z,100450
2017-12-06T05:27:00.903Z,100424
2017-12-06T05:29:07.820Z,100444
2017-12-06T05:31:16.833Z,100430
2017-12-06T05:33:24.586Z,100433
2017-12-06T05:35:30.814Z,100446
2017-12-06T05:37:39.990Z,100438
2017-12-06T05:39:47.860Z,100429
2017-12-06T05:41:56.728Z,100426
2017-12-06T05:44:03.518Z,100429
2017-12-06T05:46:10.447Z,100463
2017-12-06T05:48:18.453Z,100431
2017-12-06T05:50:25.032Z,100424
2017-12-06T05:52:31.194Z,100421
2017-12-06T05:54:38.403Z,100427
2017-12-06T05:56:45.957Z,100424
2017-12-06T05:58:52.989Z,100417
2017-12-06T06:00:58.575Z,100418
2017-12-06T06:03:07.759Z,100410
2017-12-06T06:05:15.513Z,100441
2017-12-06T06:07:26.515Z,100431
2017-12-06T06:09:36.052Z,100414
2017-12-06T06:11:42.756Z,100406
2017-12-06T06:13:55.152Z,100402
2017-12-06T06:18:24.269Z,100426
2017-12-06T06:22:48.979Z,100407
2017-12-06T06:24:59.931Z,100426
2017-12-06T06:27:09.723Z,100412
2017-12-06T06:29:18.995Z,100416
2017-12-06T06:31:29.096Z,100435
2017-12-06T06:33:37.028Z,100407
2017-12-06T06:35:50.020Z,100418
2017-12-06T06:38:01.447Z,100406
2017-12-06T06:40:09.072Z,100415
2017-12-06T06:42:17.826Z,100412
2017-12-06T06:44:24.237Z,100406
2017-12-06T06:46:32.065Z,100424
2017-12-06T06:48:38.891Z,100396
2017-12-06T06:50:44.795Z,100425
2017-12-06T06:52:51.745Z,100396
2017-12-06T06:54:57.982Z,100409
2017-12-06T06:57:04.979Z,100414
2017-12-06T06:59:10.581Z,100393
2017-12-06T07:01:16.982Z,100413
2017-12-06T07:03:22.573Z,100405
2017-12-06T07:05:28.488Z,100407
2017-12-06T07:07:38.798Z,100420
2017-12-06T07:09:44.646Z,100408
2017-12-06T07:11:50.453Z,100417
2017-12-06T07:13:59.331Z,100418
2017-12-06T07:16:09.912Z,100420
2017-12-06T07:18:24.499Z,100428
2017-12-06T07:20:30.603Z,100422
2017-12-06T07:22:39.493Z,100407
2017-12-06T07:24:46.093Z,100429
2017-12-06T07:26:52.308Z,100420
2017-12-06T07:29:00.687Z,100432
2017-12-06T07:31:11.043Z,100458
2017-12-06T07:33:20.353Z,100422
2017-12-06T07:35:28.831Z,100436
2017-12-06T07:37:34.628Z,100428
2017-12-06T07:39:40.983Z,100429
2017-12-06T07:41:46.622Z,100439
2017-12-06T07:43:55.464Z,100448
2017-12-06T07:46:02.381Z,100434
2017-12-06T07:48:10.085Z,100446
2017-12-06T07:50:19.222Z,100442
2017-12-06T07:52:26.497Z,100443
2017-12-06T07:54:33.392Z,100442
2017-12-06T07:56:42.840Z,100459
2017-12-06T07:58:48.918Z,100458
2017-12-06T08:00:54.675Z,100449
2017-12-06T08:03:00.441Z,100453
2017-12-06T08:05:06.712Z,100449
2017-12-06T08:07:12.455Z,100452
2017-12-06T08:09:18.005Z,100454
2017-12-06T08:11:23.873Z,100463
2017-12-06T08:13:29.436Z,100459
2017-12-06T08:15:35.267Z,100461
2017-12-06T08:17:41.347Z,100451
2017-12-06T08:19:47.452Z,100454
2017-12-06T08:21:53.084Z,100454
2017-12-06T08:23:59.277Z,100447
2017-12-06T08:26:05.206Z,100461
2017-12-06T08:28:12.151Z,100445
2017-12-06T08:30:19.069Z,100463
2017-12-06T08:32:26.049Z,100477
2017-12-06T08:34:34.201Z,100449
2017-12-06T08:36:42.057Z,100472
2017-12-06T08:38:53.852Z,100488
2017-12-06T08:41:00.952Z,100469
2017-12-06T08:44:10.813Z,100469
2017-12-06T08:46:18.965Z,100465
2017-12-06T08:48:26.155Z,100467
2017-12-06T08:50:32.219Z,100444
2017-12-06T08:52:38.486Z,100461
2017-12-06T08:54:45.058Z,100472
2017-12-06T08:56:51.116Z,100461
2017-12-06T08:58:58.168Z,100466
2017-12-06T09:01:06.145Z,100481
2017-12-06T09:03:12.037Z,100467
2017-12-06T09:05:18.170Z,100471
2017-12-06T09:07:24.554Z,100457
2017-12-06T09:09:30.516Z,100447
2017-12-06T09:11:36.296Z,100460
2017-12-06T09:13:42.598Z,100445
2017-12-06T09:15:48.755Z,100457
2017-12-06T09:17:54.850Z,100466
2017-12-06T09:20:01.304Z,100475
2017-12-06T09:22:07.165Z,100438
2017-12-06T09:24:13.443Z,100441
2017-12-06T09:26:20.175Z,100465
2017-12-06T09:28:25.994Z,100448
2017-12-06T09:30:33.163Z,100448
2017-12-06T09:32:43.175Z,100456
2017-12-06T09:34:49.294Z,100458
2017-12-06T09:36:54.930Z,100447
2017-12-06T09:39:00.962Z,100450
2017-12-06T09:41:07.034Z,100466
2017-12-06T09:43:12.635Z,100440
2017-12-06T09:45:18.692Z,100446
2017-12-06T09:47:24.178Z,100434
2017-12-06T09:49:30.077Z,100442
2017-12-06T09:51:35.594Z,100426
2017-12-06T09:53:41.333Z,100440
2017-12-06T09:55:47.048Z,100438
2017-12-06T09:57:52.552Z,100446
2017-12-06T09:59:58.436Z,100416
2017-12-06T10:02:04.252Z,100417
2017-12-06T10:04:09.813Z,100422
2017-12-06T10:06:15.748Z,100417
2017-12-06T10:10:31.429Z,100415
2017-12-06T10:12:38.090Z,100424
2017-12-06T10:14:43.944Z,100425
2017-12-06T10:16:49.647Z,100425
2017-12-06T10:18:55.944Z,100420
2017-12-06T10:21:01.850Z,100410
2017-12-06T10:23:08.498Z,100400
2017-12-06T10:25:14.291Z,100442
2017-12-06T10:27:20.215Z,100427
2017-12-06T10:29:26.228Z,100425
2017-12-06T10:31:32.329Z,100421
2017-12-06T10:33:37.897Z,100411
2017-12-06T10:35:43.713Z,100406
2017-12-06T10:37:49.814Z,100406
2017-12-06T10:39:55.700Z,100409
2017-12-06T10:42:03.816Z,100405
2017-12-06T10:44:09.810Z,100397
2017-12-06T10:46:15.340Z,100417
2017-12-06T10:48:20.795Z,100403
2017-12-06T10:50:27.024Z,100423
2017-12-06T10:52:32.719Z,100396
2017-12-06T10:54:38.406Z,100390
2017-12-06T10:56:44.575Z,100408
2017-12-06T10:58:50.208Z,100391
2017-12-06T11:00:55.798Z,100390
2017-12-06T11:03:01.555Z,100408
2017-12-06T11:05:08.900Z,100379
2017-12-06T11:07:17.421Z,100395
2017-12-06T11:09:27.456Z,100387
2017-12-06T11:11:35.952Z,100396
2017-12-06T11:13:43.433Z,100371
2017-12-06T11:15:51.053Z,100380
2017-12-06T11:18:04.776Z,100378
2017-12-06T11:20:13.945Z,100375
2017-12-06T11:22:23.103Z,100405
2017-12-06T11:24:31.771Z,100389
2017-12-06T11:26:38.921Z,100364
2017-12-06T11:28:47.094Z,100378
2017-12-06T11:30:55.868Z,100370
2017-12-06T11:33:01.426Z,100374
2017-12-06T11:35:07.631Z,100360
2017-12-06T11:37:13.212Z,100379
2017-12-06T11:39:21.942Z,100359
2017-12-06T11:41:27.799Z,100369
2017-12-06T11:43:33.527Z,100367
2017-12-06T11:45:39.267Z,100372
2017-12-06T11:47:44.850Z,100377
2017-12-06T11:49:50.628Z,100399
2017-12-06T11:51:55.982Z,100360
2017-12-06T11:54:01.715Z,100372
2017-12-06T11:56:07.277Z,100350
2017-12-06T11:58:13.484Z,100378
2017-12-06T12:00:19.344Z,100392
2017-12-06T12:02:24.656Z,100367
2017-12-06T12:04:30.018Z,100347
2017-12-06T12:06:35.731Z,100368
2017-12-06T12:08:41.257Z,100378
2017-12-06T12:10:46.882Z,100364
2017-12-06T12:12:52.397Z,100353
2017-12-06T12:14:57.695Z,100376
2017-12-06T12:17:03.358Z,100357
2017-12-06T12:19:09.267Z,100386
2017-12-06T12:21:14.990Z,100364
2017-12-06T12:23:20.604Z,100349
2017-12-06T12:25:26.630Z,100358
2017-12-06T12:27:32.576Z,100361
2017-12-06T12:29:38.439Z,100385
2017-12-06T12:31:44.272Z,100347
2017-12-06T12:33:50.021Z,100373
2017-12-06T12:35:56.410Z,100376
2017-12-06T12:38:02.272Z,100348
2017-12-06T12:40:08.467Z,100354
2017-12-06T12:42:14.209Z,100396
2017-12-06T12:44:20.686Z,100391
2017-12-06T12:46:26.361Z,100369
2017-12-06T12:48:32.042Z,100353
2017-12-06T12:50:37.954Z,100362
2017-12-06T12:52:43.493Z,100403
2017-12-06T12:54:49.122Z,100366
2017-12-06T12:56:55.363Z,100360
2017-12-06T12:59:01.517Z,100359
2017-12-06T13:01:08.689Z,100363
2017-12-06T13:03:14.789Z,100363
2017-12-06T13:05:20.810Z,100348
2017-12-06T13:07:29.558Z,100346
2017-12-06T13:09:36.316Z,100369
2017-12-06T13:11:44.184Z,100328
2017-12-06T13:13:50.923Z,100339
2017-12-06T13:15:58.203Z,100362
2017-12-06T13:18:05.504Z,100349
2017-12-06T13:20:13.803Z,100342
2017-12-06T13:22:21.014Z,100335
2017-12-06T13:24:27.684Z,100328
2017-12-06T13:26:34.442Z,100332
2017-12-06T13:28:40.852Z,100318
2017-12-06T13:30:47.053Z,100335
2017-12-06T13:32:53.231Z,100342
2017-12-06T13:34:59.527Z,100321
2017-12-06T13:37:07.583Z,100325
2017-12-06T13:39:14.022Z,100322
2017-12-06T13:41:20.153Z,100340
2017-12-06T13:43:26.377Z,100323
2017-12-06T13:45:32.135Z,100332
2017-12-06T13:47:38.709Z,100335
2017-12-06T13:49:44.579Z,100339
2017-12-06T13:51:50.802Z,100333
2017-12-06T13:53:57.017Z,100332
2017-12-06T13:56:07.604Z,100336
2017-12-06T13:58:13.750Z,100329
2017-12-06T14:00:19.836Z,100346
2017-12-06T14:02:25.522Z,100338
2017-12-06T14:04:32.041Z,100328
2017-12-06T14:06:37.990Z,100332
2017-12-06T14:08:44.129Z,100334
2017-12-06T14:10:50.761Z,100342
2017-12-06T14:12:57.363Z,100330
2017-12-06T14:15:03.491Z,100332
2017-12-06T14:17:10.629Z,100345
2017-12-06T14:19:17.376Z,100339
2017-12-06T14:21:24.413Z,100335
2017-12-06T14:23:31.351Z,100337
2017-12-06T14:25:38.081Z,100327
2017-12-06T14:27:47.078Z,100336
2017-12-06T14:29:52.664Z,100330
2017-12-06T14:31:58.626Z,100345
2017-12-06T14:34:05.856Z,100334
2017-12-06T14:36:13.926Z,100331
2017-12-06T14:38:21.838Z,100328
2017-12-06T14:40:27.600Z,100345
2017-12-06T14:42:36.760Z,100334
2017-12-06T14:44:43.986Z,100325
2017-12-06T14:46:52.189Z,100341
2017-12-06T14:48:58.867Z,100324
2017-12-06T14:51:07.290Z,100317
2017-12-06T14:53:13.495Z,100342
2017-12-06T14:55:22.852Z,100336
2017-12-06T14:57:30.122Z,100340
2017-12-06T14:59:37.431Z,100339
2017-12-06T15:01:48.510Z,100315
2017-12-06T15:03:54.413Z,100334
2017-12-06T15:06:01.866Z,100332
2017-12-06T15:08:07.636Z,100316
2017-12-06T15:10:15.531Z,100316
2017-12-06T15:12:22.212Z,100336
2017-12-06T15:14:32.392Z,100316
2017-12-06T15:16:41.639Z,100314
2017-12-06T15:18:50.590Z,100320
2017-12-06T15:20:57.674Z,100321
2017-12-06T15:23:04.558Z,100320
2017-12-06T15:25:15.304Z,100312
2017-12-06T15:27:26.229Z,100332
2017-12-06T15:29:36.802Z,100319
2017-12-06T15:31:46.283Z,100320
2017-12-06T15:33:58.106Z,100325
2017-12-06T15:36:05.799Z,100315
2017-12-06T15:38:17.120Z,100311
2017-12-06T15:40:26.850Z,100309
2017-12-06T15:42:34.302Z,100319
2017-12-06T15:44:42.718Z,100318
2017-12-06T15:46:49.549Z,100311
2017-12-06T15:48:57.555Z,100321
2017-12-06T15:51:06.005Z,100333
2017-12-06T15:53:11.984Z,100315
2017-12-06T15:55:18.949Z,100324
2017-12-06T15:57:25.178Z,100320
2017-12-06T15:59:31.223Z,100316
2017-12-06T16:01:41.179Z,100324
2017-12-06T16:03:51.318Z,100313
2017-12-06T16:05:57.379Z,100311
2017-12-06T16:08:05.049Z,100321
2017-12-06T16:10:12.381Z,100316
2017-12-06T16:12:18.435Z,100320
2017-12-06T16:14:24.710Z,100312
2017-12-06T16:16:30.810Z,100310
2017-12-06T16:18:40.227Z,100315
2017-12-06T16:20:47.788Z,100317
2017-12-06T16:22:57.440Z,100321
2017-12-06T16:25:07.562Z,100313
2017-12-06T16:27:14.415Z,100313
2017-12-06T16:29:21.885Z,100307
2017-12-06T16:31:31.161Z,100307
2017-12-06T16:33:38.596Z,100303
2017-12-06T16:37:56.790Z,100308
2017-12-06T16:40:06.068Z,100307
2017-12-06T16:42:13.145Z,100302
2017-12-06T16:44:19.286Z,100305
2017-12-06T16:46:26.963Z,100306
2017-12-06T16:48:33.782Z,100314
2017-12-06T16:50:40.039Z,100303
2017-12-06T16:52:46.954Z,100311
2017-12-06T16:54:52.931Z,100304
2017-12-06T16:57:01.008Z,100300
2017-12-06T16:59:07.961Z,100311
2017-12-06T17:01:14.069Z,100299
2017-12-06T17:03:20.259Z,100300
2017-12-06T17:05:27.229Z,100295
2017-12-06T17:07:33.984Z,100291
2017-12-06T17:09:40.438Z,100289
2017-12-06T17:11:48.253Z,100280
2017-12-06T17:13:55.344Z,100279
2017-12-06T17:16:07.058Z,100287
2017-12-06T18:07:23.041Z,100254
2017-12-06T18:09:28.636Z,100258
2017-12-06T18:11:34.480Z,100256
2017-12-06T18:13:40.728Z,100249
2017-12-06T18:15:49.849Z,100251
2017-12-06T18:18:12.504Z,100253
2017-12-06T18:20:21.827Z,100255
2017-12-06T18:22:28.154Z,100249
2017-12-06T18:24:33.960Z,100240
2017-12-06T18:26:39.786Z,100237
2017-12-06T18:28:45.635Z,100230
2017-12-06T18:30:51.133Z,100238
2017-12-06T18:32:58.975Z,100235
2017-12-06T18:35:05.145Z,100227
2017-12-06T18:37:12.534Z,100233
2017-12-06T18:39:21.072Z,100232
2017-12-06T18:41:28.255Z,100239
2017-12-06T18:43:35.686Z,100237
2017-12-06T18:45:42.018Z,100232
2017-12-06T18:47:49.975Z,100236
2017-12-06T18:49:57.291Z,100233
2017-12-06T18:52:04.118Z,100234
2017-12-06T18:54:17.784Z,100233
2017-12-06T18:56:28.522Z,100231
2017-12-06T18:58:39.694Z,100240
2017-12-06T19:01:03.375Z,100229
2017-12-06T19:04:37.309Z,100228
2017-12-06T19:07:05.889Z,100227
2017-12-06T19:09:18.657Z,100224
2017-12-06T19:11:41.358Z,100223
2017-12-06T19:14:04.753Z,100230
2017-12-06T19:16:58.821Z,100231
2017-12-06T19:19:26.280Z,100236
2017-12-06T19:22:08.447Z,100233
2017-12-06T19:28:34.472Z,100235
2017-12-06T19:30:54.151Z,100239
2017-12-06T19:36:11.495Z,100229
2017-12-06T19:38:23.697Z,100224
2017-12-06T19:43:03.540Z,100231
2017-12-06T19:51:44.991Z,100218
2017-12-06T19:54:11.045Z,100222
2017-12-06T20:09:39.057Z,100221
2017-12-06T20:11:48.873Z,100214
2017-12-06T20:16:33.982Z,100220
2017-12-06T20:21:16.466Z,100218
2017-12-06T20:23:24.568Z,100210
2017-12-06T20:25:37.099Z,100218
2017-12-06T20:28:00.865Z,100223
2017-12-06T20:30:11.473Z,100213
2017-12-06T20:32:18.459Z,100204
2017-12-06T20:34:26.627Z,100210
2017-12-06T20:36:33.180Z,100205
2017-12-06T20:38:38.974Z,100196
2017-12-06T20:40:45.540Z,100195
2017-12-06T20:42:53.939Z,100198
2017-12-06T20:45:02.815Z,100186
2017-12-06T20:47:15.624Z,100188
2017-12-06T20:49:27.729Z,100186
2017-12-06T20:51:37.022Z,100188
2017-12-06T20:53:48.966Z,100181
2017-12-06T20:55:59.098Z,100188
2017-12-06T20:58:07.126Z,100180
2017-12-06T21:00:14.040Z,100182
2017-12-06T21:02:19.863Z,100168
2017-12-06T21:04:26.116Z,100174
2017-12-06T21:06:31.962Z,100170
2017-12-06T21:08:38.167Z,100177
2017-12-06T21:10:44.799Z,100170
2017-12-06T21:12:51.334Z,100165
2017-12-06T21:14:57.064Z,100165
2017-12-06T21:17:43.146Z,100160
2017-12-06T21:19:50.600Z,100172
2017-12-06T21:24:37.365Z,100156
2017-12-06T21:31:47.047Z,100147
2017-12-06T21:34:17.772Z,100139
2017-12-06T21:36:55.257Z,100138
2017-12-06T21:39:22.306Z,100131
2017-12-06T21:41:30.198Z,100144
2017-12-06T21:43:45.574Z,100129
2017-12-06T21:45:55.324Z,100137
2017-12-06T21:48:05.905Z,100127
2017-12-06T21:50:17.134Z,100128
2017-12-06T21:52:25.098Z,100125
2017-12-06T21:54:34.862Z,100127
2017-12-06T21:56:45.712Z,100128
2017-12-06T21:59:01.312Z,100119
2017-12-06T22:01:10.340Z,100115
2017-12-06T22:03:19.520Z,100117
2017-12-06T22:05:45.004Z,100123
2017-12-06T22:07:53.117Z,100118
2017-12-06T22:10:11.337Z,100117
2017-12-06T22:12:35.378Z,100119
2017-12-06T22:14:49.020Z,100117
2017-12-06T22:16:56.941Z,100112
2017-12-06T22:19:08.769Z,100113
2017-12-06T22:21:19.534Z,100106
2017-12-06T22:26:20.967Z,100103
2017-12-06T22:28:35.668Z,100101
2017-12-06T22:30:50.217Z,100090
2017-12-06T22:34:21.964Z,100093
2017-12-06T22:36:33.100Z,100091
2017-12-06T22:38:47.629Z,100088
2017-12-06T22:40:55.941Z,100085
2017-12-06T22:43:23.456Z,100077
2017-12-06T22:45:30.210Z,100075
2017-12-06T22:47:38.588Z,100088
2017-12-06T22:49:46.893Z,100085
2017-12-06T22:51:59.356Z,100077
2017-12-06T22:54:06.407Z,100078
2017-12-06T22:56:16.626Z,100068
2017-12-06T22:58:26.587Z,100061
2017-12-06T23:00:36.818Z,100056
2017-12-06T23:03:17.191Z,100057
2017-12-06T23:05:37.068Z,100054
2017-12-06T23:13:16.879Z,100045
2017-12-06T23:17:44.680Z,100030
2017-12-06T23:19:51.285Z,100018
2017-12-06T23:22:07.916Z,100017
2017-12-06T23:24:19.612Z,100017
2017-12-06T23:26:25.626Z,100015
2017-12-06T23:28:35.757Z,100007
2017-12-06T23:30:49.535Z,100010
2017-12-06T23:32:58.085Z,100014
2017-12-06T23:35:05.521Z,100004
2017-12-06T23:37:16.619Z,100011
2017-12-06T23:39:46.222Z,100009
2017-12-06T23:42:30.209Z,99991
2017-12-06T23:44:44.944Z,99988
2017-12-06T23:46:51.558Z,99981
2017-12-06T23:48:57.982Z,99973
2017-12-06T23:51:08.897Z,100000
2017-12-06T23:53:14.552Z,99975
2017-12-06T23:55:20.404Z,99973
2017-12-06T23:57:37.070Z,99980
2017-12-06T23:59:58.076Z,99961
